createdAt,value
2018-01-10T00:00:41.567Z,12.83
2018-01-10T00:03:10.706Z,9.70
2018-01-10T00:05:38.667Z,13.30
2018-01-10T00:08:07.265Z,13.10
2018-01-10T00:10:35.245Z,10.87
2018-01-10T00:13:03.316Z,10.63
2018-01-10T00:15:31.165Z,5.10
2018-01-10T00:17:59.044Z,6.30
2018-01-10T00:20:26.919Z,6.07
2018-01-10T00:22:55.496Z,7.23
2018-01-10T00:25:23.447Z,9.70
2018-01-10T00:27:51.243Z,12.23
2018-01-10T00:30:19.200Z,9.07
2018-01-10T00:32:46.964Z,14.33
2018-01-10T00:35:14.736Z,9.10
2018-01-10T00:37:42.557Z,10.27
2018-01-10T00:40:10.367Z,8.47
2018-01-10T00:42:38.799Z,10.70
2018-01-10T00:45:06.790Z,8.43
2018-01-10T00:47:34.786Z,10.70
2018-01-10T00:50:02.624Z,5.17
2018-01-10T00:52:30.604Z,12.60
2018-01-10T00:54:58.582Z,13.93
2018-01-10T00:57:26.452Z,4.30
2018-01-10T00:59:54.333Z,6.70
2018-01-10T01:02:22.175Z,6.00
2018-01-10T01:04:49.902Z,6.87
2018-01-10T01:07:17.666Z,11.53
2018-01-10T01:09:46.351Z,7.50
2018-01-10T01:12:14.155Z,5.90
2018-01-10T01:14:42.024Z,5.40
2018-01-10T01:17:09.926Z,6.70
2018-01-10T01:19:38.485Z,7.50
2018-01-10T01:22:06.423Z,7.30
2018-01-10T01:24:35.046Z,6.30
2018-01-10T01:27:02.825Z,7.43
2018-01-10T01:29:31.470Z,13.47
2018-01-10T01:31:59.334Z,15.20
2018-01-10T01:34:27.079Z,9.93
2018-01-10T01:36:55.178Z,11.97
2018-01-10T01:39:23.137Z,6.83
2018-01-10T01:41:51.030Z,5.90
2018-01-10T01:44:18.778Z,7.73
2018-01-10T01:46:46.564Z,10.03
2018-01-10T01:49:15.084Z,6.50
2018-01-10T01:51:43.152Z,5.13
2018-01-10T01:54:10.963Z,7.10
2018-01-10T01:56:38.843Z,7.10
2018-01-10T01:59:07.157Z,12.27
2018-01-10T02:01:34.985Z,4.27
2018-01-10T02:04:02.732Z,8.60
2018-01-10T02:06:30.891Z,7.53
2018-01-10T02:08:58.676Z,10.70
2018-01-10T02:11:26.531Z,7.03
2018-01-10T02:13:55.729Z,9.43
2018-01-10T02:16:23.785Z,8.67
2018-01-10T02:18:51.541Z,5.37
2018-01-10T02:21:19.437Z,9.20
2018-01-10T02:23:47.186Z,5.07
2018-01-10T02:26:15.162Z,7.90
2018-01-10T02:28:43.083Z,6.17
2018-01-10T02:31:11.823Z,5.63
2018-01-10T02:33:39.666Z,6.93
2018-01-10T02:36:07.415Z,8.83
2018-01-10T02:38:35.201Z,12.43
2018-01-10T02:41:02.976Z,15.23
2018-01-10T02:43:30.840Z,11.20
2018-01-10T02:45:58.822Z,9.77
2018-01-10T02:48:26.780Z,8.53
2018-01-10T02:50:55.609Z,8.30
2018-01-10T02:53:24.250Z,12.47
2018-01-10T02:55:52.223Z,16.53
2018-01-10T02:58:19.985Z,15.23
2018-01-10T03:00:47.726Z,19.00
2018-01-10T03:03:15.730Z,17.83
2018-01-10T03:05:43.566Z,15.37
2018-01-10T03:08:11.455Z,18.33
2018-01-10T03:10:39.320Z,17.07
2018-01-10T03:13:07.848Z,26.63
2018-01-10T03:15:35.833Z,24.47
2018-01-10T03:18:03.642Z,19.53
2018-01-10T03:20:31.502Z,23.83
2018-01-10T03:22:59.252Z,24.43
2018-01-10T03:25:27.136Z,18.53
2018-01-10T03:27:55.002Z,19.43
2018-01-10T03:30:22.861Z,17.40
2018-01-10T03:32:50.627Z,15.30
2018-01-10T03:35:18.367Z,18.40
2018-01-10T03:37:46.114Z,20.90
2018-01-10T03:40:13.851Z,19.27
2018-01-10T03:42:42.793Z,19.50
2018-01-10T03:45:11.698Z,20.87
2018-01-10T03:47:39.567Z,18.80
2018-01-10T03:50:07.292Z,21.17
2018-01-10T03:52:35.081Z,24.13
2018-01-10T03:55:02.955Z,28.43
2018-01-10T03:57:30.729Z,26.67
2018-01-10T03:59:58.542Z,27.43
2018-01-10T04:02:26.644Z,33.30
2018-01-10T04:04:54.509Z,35.13
2018-01-10T04:07:22.244Z,34.40
2018-01-10T04:09:50.050Z,41.20
2018-01-10T04:12:18.116Z,38.27
2018-01-10T04:14:45.990Z,39.83
2018-01-10T04:17:13.752Z,45.50
2018-01-10T04:19:41.493Z,39.43
2018-01-10T04:22:09.399Z,52.77
2018-01-10T04:24:37.462Z,49.43
2018-01-10T04:27:05.217Z,41.90
2018-01-10T04:29:33.063Z,47.53
2018-01-10T04:32:01.074Z,53.87
2018-01-10T04:34:28.902Z,64.40
2018-01-10T04:36:56.782Z,66.67
2018-01-10T04:39:24.668Z,61.53
2018-01-10T04:41:53.056Z,100.03
2018-01-10T04:44:20.790Z,62.23
2018-01-10T04:46:48.767Z,100.80
2018-01-10T04:49:16.534Z,90.07
2018-01-10T04:51:44.387Z,75.30
2018-01-10T04:54:12.366Z,120.93
2018-01-10T04:56:40.284Z,108.23
2018-01-10T04:59:08.078Z,90.97
2018-01-10T05:01:35.808Z,77.30
2018-01-10T05:04:03.829Z,100.13
2018-01-10T05:06:31.841Z,54.03
2018-01-10T05:09:00.587Z,49.83
2018-01-10T05:11:28.371Z,48.87
2018-01-10T05:13:56.225Z,49.57
2018-01-10T05:16:24.118Z,42.50
2018-01-10T05:18:52.640Z,47.40
2018-01-10T05:21:20.514Z,36.47
2018-01-10T05:23:48.290Z,31.07
2018-01-10T05:26:17.083Z,25.90
2018-01-10T05:28:44.852Z,23.30
2018-01-10T05:31:12.692Z,23.63
2018-01-10T05:33:40.565Z,23.40
2018-01-10T05:36:09.275Z,21.67
2018-01-10T05:38:37.234Z,17.87
2018-01-10T05:41:05.004Z,19.17
2018-01-10T05:43:33.688Z,19.77
2018-01-10T05:46:06.819Z,16.73
2018-01-10T05:48:35.545Z,24.50
2018-01-10T05:51:03.462Z,28.60
2018-01-10T05:53:32.251Z,19.80
2018-01-10T05:56:00.808Z,24.93
2018-01-10T05:58:28.836Z,23.90
2018-01-10T06:00:56.734Z,26.73
2018-01-10T06:03:24.734Z,22.00
2018-01-10T06:05:53.287Z,25.57
2018-01-10T06:08:21.138Z,23.90
2018-01-10T06:10:48.917Z,25.17
2018-01-10T06:13:16.682Z,20.17
2018-01-10T06:15:44.546Z,30.20
2018-01-10T06:18:12.415Z,22.87
2018-01-10T06:20:40.498Z,21.10
2018-01-10T06:23:08.298Z,28.13
2018-01-10T06:25:36.120Z,26.97
2018-01-10T06:28:04.506Z,29.67
2018-01-10T06:30:32.303Z,21.13
2018-01-10T06:33:01.362Z,22.13
2018-01-10T06:35:29.222Z,18.30
2018-01-10T06:37:56.995Z,13.37
2018-01-10T06:40:25.550Z,19.73
2018-01-10T06:42:57.796Z,17.53
2018-01-10T06:45:25.605Z,12.97
2018-01-10T06:47:53.365Z,17.90
2018-01-10T06:50:21.936Z,15.83
2018-01-10T06:52:50.504Z,21.60
2018-01-10T06:55:18.509Z,27.23
2018-01-10T06:57:46.453Z,11.43
2018-01-10T07:00:14.417Z,13.50
2018-01-10T07:02:42.393Z,9.17
2018-01-10T07:05:11.172Z,16.30
2018-01-10T07:07:39.578Z,22.07
2018-01-10T07:10:07.430Z,29.97
2018-01-10T07:12:35.228Z,23.13
2018-01-10T07:15:03.152Z,19.53
2018-01-10T07:17:30.932Z,21.83
2018-01-10T07:19:58.884Z,21.13
2018-01-10T07:22:26.625Z,21.80
2018-01-10T07:24:54.433Z,21.20
2018-01-10T07:27:22.284Z,28.53
2018-01-10T07:29:50.146Z,32.20
2018-01-10T07:32:18.031Z,49.83
2018-01-10T07:34:45.788Z,52.00
2018-01-10T07:37:13.636Z,208.10
2018-01-10T07:39:41.731Z,98.37
2018-01-10T07:42:09.694Z,66.73
2018-01-10T07:44:37.752Z,55.47
2018-01-10T07:47:07.051Z,117.23
2018-01-10T07:49:35.023Z,64.33
2018-01-10T07:52:03.021Z,88.83
2018-01-10T07:54:30.879Z,64.57
2018-01-10T07:56:58.756Z,71.07
2018-01-10T07:59:27.411Z,58.53
2018-01-10T08:01:55.305Z,65.50
2018-01-10T08:04:24.701Z,56.90
2018-01-10T08:06:52.568Z,53.57
2018-01-10T08:09:20.515Z,55.37
2018-01-10T08:11:48.326Z,51.43
2018-01-10T08:14:16.860Z,52.10
2018-01-10T08:16:44.639Z,53.83
2018-01-10T08:19:12.416Z,47.57
2018-01-10T08:21:40.458Z,56.43
2018-01-10T08:24:09.055Z,62.90
2018-01-10T08:26:36.928Z,55.70
2018-01-10T08:29:04.795Z,60.70
2018-01-10T08:31:32.707Z,57.50
2018-01-10T08:34:00.609Z,61.43
2018-01-10T08:36:28.473Z,53.27
2018-01-10T08:38:56.346Z,60.17
2018-01-10T08:41:24.127Z,49.70
2018-01-10T08:43:51.969Z,53.20
2018-01-10T08:46:19.797Z,43.30
2018-01-10T08:48:48.341Z,33.70
2018-01-10T08:51:16.092Z,31.10
2018-01-10T08:53:44.674Z,31.37
2018-01-10T08:56:12.560Z,25.50
2018-01-10T08:58:40.405Z,26.63
2018-01-10T09:01:08.367Z,28.80
2018-01-10T09:03:36.250Z,23.40
2018-01-10T09:06:04.117Z,23.60
2018-01-10T09:08:31.965Z,27.47
2018-01-10T09:11:00.144Z,27.77
2018-01-10T09:13:27.888Z,20.73
2018-01-10T09:15:55.649Z,23.90
2018-01-10T09:18:23.470Z,31.83
2018-01-10T09:20:51.403Z,35.13
2018-01-10T09:23:19.379Z,29.97
2018-01-10T09:25:47.181Z,33.50
2018-01-10T09:28:15.738Z,36.23
2018-01-10T09:30:43.687Z,31.63
2018-01-10T09:33:11.554Z,39.17
2018-01-10T09:35:39.483Z,39.87
2018-01-10T09:38:08.312Z,21.70
2018-01-10T09:40:36.889Z,28.90
2018-01-10T09:43:05.396Z,29.30
2018-01-10T09:45:33.377Z,24.70
2018-01-10T09:48:02.037Z,26.43
2018-01-10T09:50:29.823Z,19.10
2018-01-10T09:52:58.273Z,19.30
2018-01-10T09:55:26.263Z,23.53
2018-01-10T09:57:54.115Z,24.53
2018-01-10T10:00:22.604Z,24.73
2018-01-10T10:02:50.371Z,20.60
2018-01-10T10:05:18.325Z,16.53
2018-01-10T10:07:46.219Z,16.60
2018-01-10T10:10:14.169Z,20.33
2018-01-10T10:12:42.043Z,27.47
2018-01-10T10:15:09.922Z,23.27
2018-01-10T10:17:37.763Z,25.00
2018-01-10T10:20:05.729Z,29.77
2018-01-10T10:22:33.717Z,37.37
2018-01-10T10:25:01.591Z,26.33
2018-01-10T10:27:29.449Z,21.33
2018-01-10T10:29:57.321Z,13.77
2018-01-10T10:32:25.109Z,15.30
2018-01-10T10:34:53.768Z,16.97
2018-01-10T10:37:21.513Z,19.60
2018-01-10T10:39:49.276Z,15.13
2018-01-10T10:42:17.269Z,20.27
2018-01-10T10:44:45.079Z,18.37
2018-01-10T10:47:14.612Z,21.00
2018-01-10T10:49:42.358Z,22.60
2018-01-10T10:52:10.171Z,23.80
2018-01-10T10:54:38.007Z,24.97
2018-01-10T10:57:06.467Z,28.40
2018-01-10T10:59:34.383Z,21.07
2018-01-10T11:02:02.243Z,27.47
2018-01-10T11:04:30.108Z,19.93
2018-01-10T11:06:57.955Z,22.57
2018-01-10T11:09:25.924Z,20.13
2018-01-10T11:11:53.808Z,21.50
2018-01-10T11:14:22.271Z,20.60
2018-01-10T11:16:50.050Z,23.83
2018-01-10T11:19:17.999Z,20.00
2018-01-10T11:21:46.076Z,23.47
2018-01-10T11:24:13.959Z,24.23
2018-01-10T11:26:41.808Z,23.30
2018-01-10T11:29:09.674Z,21.00
2018-01-10T11:31:38.478Z,23.53
2018-01-10T11:34:06.231Z,23.93
2018-01-10T11:36:34.066Z,23.90
2018-01-10T11:39:07.383Z,21.77
2018-01-10T11:41:35.396Z,22.57
2018-01-10T11:44:04.066Z,14.30
2018-01-10T11:46:32.894Z,17.10
2018-01-10T11:49:00.805Z,14.70
2018-01-10T11:51:28.699Z,15.40
2018-01-10T11:53:56.550Z,16.43
2018-01-10T11:56:24.531Z,24.77
2018-01-10T11:58:52.407Z,18.30
2018-01-10T12:01:21.075Z,18.27
2018-01-10T12:03:48.918Z,13.67
2018-01-10T12:06:16.685Z,37.80
2018-01-10T12:08:44.651Z,44.80
2018-01-10T12:11:12.630Z,49.63
2018-01-10T12:13:41.304Z,42.50
2018-01-10T12:16:09.189Z,48.23
2018-01-10T12:18:37.056Z,53.20
2018-01-10T12:21:04.823Z,48.60
2018-01-10T12:23:32.741Z,51.23
2018-01-10T12:26:00.514Z,44.20
2018-01-10T12:28:28.313Z,50.30
2018-01-10T12:30:56.388Z,43.20
2018-01-10T12:33:24.685Z,47.63
2018-01-10T12:35:52.466Z,48.83
2018-01-10T12:38:21.093Z,51.80
2018-01-10T12:40:48.885Z,51.47
2018-01-10T12:43:16.748Z,45.30
2018-01-10T12:45:44.594Z,42.80
2018-01-10T12:48:12.474Z,45.50
2018-01-10T12:50:40.226Z,47.07
2018-01-10T12:53:08.115Z,41.57
2018-01-10T12:55:36.064Z,47.20
2018-01-10T12:58:03.841Z,44.90
2018-01-10T13:00:31.717Z,49.03
2018-01-10T13:03:00.154Z,47.33
2018-01-10T13:05:28.037Z,44.60
2018-01-10T13:07:55.940Z,45.55
2018-01-10T13:10:23.804Z,45.53
2018-01-10T13:12:52.379Z,49.77
2018-01-10T13:15:20.474Z,49.80
2018-01-10T13:17:49.500Z,54.10
2018-01-10T13:20:17.693Z,59.00
2018-01-10T13:22:46.378Z,62.60
2018-01-10T13:25:14.349Z,50.50
2018-01-10T13:27:42.520Z,53.87
2018-01-10T13:30:10.688Z,49.20
2018-01-10T13:32:38.751Z,54.93
2018-01-10T13:35:07.435Z,56.97
2018-01-10T13:37:35.829Z,50.67
2018-01-10T13:40:04.028Z,58.27
2018-01-10T13:42:32.850Z,54.50
2018-01-10T13:45:01.497Z,51.83
2018-01-10T13:47:29.527Z,51.33
2018-01-10T13:49:57.525Z,46.63
2018-01-10T13:52:25.715Z,42.73
2018-01-10T13:54:53.659Z,47.73
2018-01-10T13:57:21.816Z,46.00
2018-01-10T13:59:49.819Z,47.03
2018-01-10T14:02:18.300Z,48.57
2018-01-10T14:04:46.075Z,54.23
2018-01-10T14:07:14.753Z,51.20
2018-01-10T14:09:42.604Z,45.20
2018-01-10T14:12:10.510Z,57.00
2018-01-10T14:14:39.252Z,57.03
2018-01-10T14:17:07.125Z,62.20
2018-01-10T14:19:35.050Z,59.60
2018-01-10T14:22:03.887Z,64.77
2018-01-10T14:24:31.794Z,51.83
2018-01-10T14:26:59.814Z,55.70
2018-01-10T14:29:27.810Z,49.87
2018-01-10T14:31:57.684Z,57.00
2018-01-10T14:34:25.700Z,53.87
2018-01-10T14:36:54.473Z,38.80
2018-01-10T14:39:22.563Z,41.70
2018-01-10T14:41:51.256Z,38.17
2018-01-10T14:44:19.813Z,44.53
2018-01-10T14:46:48.045Z,34.40
2018-01-10T14:49:16.145Z,40.67
2018-01-10T14:51:44.139Z,46.20
2018-01-10T14:54:11.918Z,52.90
2018-01-10T14:56:40.508Z,48.03
2018-01-10T14:59:09.452Z,45.87
2018-01-10T15:01:37.418Z,55.37
2018-01-10T15:04:05.284Z,48.93
2018-01-10T15:06:34.061Z,56.13
2018-01-10T15:09:02.349Z,47.40
2018-01-10T15:11:31.069Z,55.20
2018-01-10T15:13:58.919Z,64.37
2018-01-10T15:16:26.725Z,211.37
2018-01-10T15:18:55.295Z,135.17
2018-01-10T15:21:32.042Z,62.27
2018-01-10T15:24:00.011Z,69.13
2018-01-10T15:26:27.965Z,71.83
2018-01-10T15:28:55.960Z,78.00
2018-01-10T15:31:23.898Z,70.63
2018-01-10T15:33:51.748Z,66.33
2018-01-10T15:36:19.768Z,84.60
2018-01-10T15:38:47.816Z,74.47
2018-01-10T15:41:15.775Z,88.77
2018-01-10T15:43:44.154Z,89.33
2018-01-10T15:46:11.950Z,72.90
2018-01-10T15:48:39.940Z,80.30
2018-01-10T15:51:08.980Z,90.07
2018-01-10T15:53:36.863Z,91.27
2018-01-10T15:56:04.920Z,102.40
2018-01-10T15:58:32.937Z,102.33
2018-01-10T16:01:01.553Z,68.73
2018-01-10T16:03:29.448Z,343.13
2018-01-10T16:05:57.714Z,259.23
2018-01-10T16:08:25.816Z,154.80
2018-01-10T16:10:54.676Z,112.27
2018-01-10T16:13:22.789Z,81.10
2018-01-10T16:15:50.937Z,88.57
2018-01-10T16:18:19.621Z,77.93
2018-01-10T16:20:47.485Z,81.60
2018-01-10T16:23:15.545Z,74.17
2018-01-10T16:25:43.427Z,93.80
2018-01-10T16:28:11.508Z,75.53
2018-01-10T16:30:39.483Z,121.23
2018-01-10T16:33:08.164Z,202.70
2018-01-10T16:35:36.009Z,143.10
2018-01-10T16:38:04.901Z,244.33
2018-01-10T16:40:34.077Z,293.73
2018-01-10T16:43:01.977Z,82.23
2018-01-10T16:45:30.778Z,102.00
2018-01-10T16:47:59.310Z,88.80
2018-01-10T16:50:27.047Z,77.87
2018-01-10T16:52:55.558Z,79.27
2018-01-10T16:55:23.570Z,90.03
2018-01-10T16:57:52.533Z,85.60
2018-01-10T17:00:20.416Z,86.37
2018-01-10T17:02:48.308Z,90.80
2018-01-10T17:05:16.885Z,70.57
2018-01-10T17:07:44.734Z,75.10
2018-01-10T17:10:12.600Z,75.43
2018-01-10T17:12:40.552Z,85.40
2018-01-10T17:15:08.524Z,108.73
2018-01-10T17:17:36.597Z,88.77
2018-01-10T17:20:05.343Z,109.20
2018-01-10T17:22:33.193Z,76.30
2018-01-10T17:25:01.834Z,94.23
2018-01-10T17:27:30.338Z,80.23
2018-01-10T17:29:58.103Z,90.43
2018-01-10T17:32:25.961Z,76.00
2018-01-10T17:34:53.846Z,77.47
2018-01-10T17:37:22.902Z,98.40
2018-01-10T17:39:50.800Z,99.03
2018-01-10T17:42:18.652Z,117.53
2018-01-10T17:44:46.521Z,96.00
2018-01-10T17:47:14.573Z,113.43
2018-01-10T17:49:42.437Z,94.63
2018-01-10T17:52:10.247Z,102.40
2018-01-10T17:54:38.914Z,102.33
2018-01-10T17:57:09.367Z,113.47
2018-01-10T17:59:37.324Z,109.97
2018-01-10T18:02:05.277Z,99.87
2018-01-10T18:04:33.081Z,109.53
2018-01-10T18:07:00.925Z,113.10
2018-01-10T18:09:30.717Z,105.37
2018-01-10T18:11:58.597Z,106.03
2018-01-10T18:14:26.448Z,141.50
2018-01-10T18:16:54.465Z,119.93
2018-01-10T18:19:22.301Z,119.20
2018-01-10T18:21:51.069Z,124.20
2018-01-10T18:24:19.125Z,113.93
2018-01-10T18:26:47.117Z,109.57
2018-01-10T18:29:15.277Z,132.27
2018-01-10T18:31:43.063Z,124.70
2018-01-10T18:34:11.720Z,109.40
2018-01-10T18:36:40.610Z,118.67
2018-01-10T18:39:08.697Z,126.33
2018-01-10T18:41:36.693Z,122.97
2018-01-10T18:44:06.276Z,118.97
2018-01-10T18:46:34.337Z,125.70
2018-01-10T18:49:02.290Z,110.17
2018-01-10T18:51:30.287Z,127.37
2018-01-10T18:53:58.429Z,129.87
2018-01-10T18:56:26.692Z,145.63
2018-01-10T18:58:54.551Z,167.77
2018-01-10T19:01:22.576Z,126.90
2018-01-10T19:03:50.555Z,123.67
2018-01-10T19:06:18.508Z,126.40
2018-01-10T19:08:46.924Z,120.80
2018-01-10T19:11:15.563Z,108.93
2018-01-10T19:13:43.626Z,127.90
2018-01-10T19:18:50.079Z,118.23
2018-01-10T19:21:18.403Z,135.90
2018-01-10T19:23:46.211Z,115.93
2018-01-10T19:26:14.248Z,123.07
2018-01-10T19:28:42.285Z,111.33
2018-01-10T19:31:10.151Z,108.70
2018-01-10T19:33:38.098Z,107.63
2018-01-10T19:36:05.905Z,109.93
2018-01-10T19:38:34.159Z,125.27
2018-01-10T19:41:02.174Z,122.00
2018-01-10T19:43:32.361Z,92.40
2018-01-10T19:46:00.366Z,91.37
2018-01-10T19:48:29.519Z,89.13
2018-01-10T19:50:59.287Z,86.33
2018-01-10T19:53:28.115Z,75.67
2018-01-10T19:55:56.192Z,57.93
2018-01-10T19:58:24.462Z,58.20
2018-01-10T20:00:52.499Z,55.53
2018-01-10T20:03:20.417Z,64.50
2018-01-10T20:05:48.681Z,66.20
2018-01-10T20:08:16.606Z,55.00
2018-01-10T20:10:45.391Z,45.37
2018-01-10T20:13:14.545Z,44.53
2018-01-10T20:15:42.523Z,41.20
2018-01-10T20:18:12.411Z,51.37
2018-01-10T20:20:40.589Z,51.40
2018-01-10T20:23:08.682Z,65.60
2018-01-10T20:25:36.671Z,66.30
2018-01-10T20:28:05.350Z,65.57
2018-01-10T20:30:34.437Z,62.60
2018-01-10T20:33:02.318Z,68.30
2018-01-10T20:35:30.973Z,72.13
2018-01-10T20:37:59.330Z,74.23
2018-01-10T20:40:27.306Z,71.87
2018-01-10T20:42:56.604Z,73.33
2018-01-10T20:45:24.988Z,130.57
2018-01-10T20:47:53.310Z,123.10
2018-01-10T20:50:22.149Z,103.40
2018-01-10T20:52:50.219Z,104.90
2018-01-10T20:55:18.226Z,82.23
2018-01-10T20:57:46.182Z,94.00
2018-01-10T21:00:14.537Z,116.33
2018-01-10T21:02:43.069Z,83.57
2018-01-10T21:05:11.908Z,104.37
2018-01-10T21:07:39.918Z,99.53
2018-01-10T21:10:08.766Z,91.37
2018-01-10T21:12:36.786Z,96.43
2018-01-10T21:15:05.406Z,95.70
2018-01-10T21:17:33.498Z,107.50
2018-01-10T21:20:02.536Z,86.03
2018-01-10T21:22:31.160Z,94.77
2018-01-10T21:24:59.038Z,96.83
2018-01-10T21:27:26.931Z,112.30
2018-01-10T21:29:54.975Z,90.77
2018-01-10T21:32:24.789Z,104.77
2018-01-10T21:34:52.887Z,89.07
2018-01-10T21:37:20.759Z,108.20
2018-01-10T21:39:48.690Z,87.47
2018-01-10T21:42:16.682Z,90.40
2018-01-10T21:44:44.934Z,96.10
2018-01-10T21:47:12.815Z,85.40
2018-01-10T21:49:41.315Z,92.00
2018-01-10T21:52:10.658Z,81.53
2018-01-10T21:54:38.631Z,87.73
2018-01-10T21:57:06.480Z,60.50
2018-01-10T21:59:34.393Z,46.03
2018-01-10T22:02:02.766Z,47.70
2018-01-10T22:04:30.766Z,44.43
2018-01-10T22:06:59.038Z,42.80
2018-01-10T22:09:27.124Z,22.00
2018-01-10T22:11:55.931Z,24.73
2018-01-10T22:14:24.059Z,20.57
2018-01-10T22:16:52.027Z,16.77
2018-01-10T22:19:21.005Z,20.97
2018-01-10T22:21:49.250Z,27.23
2018-01-10T22:24:17.065Z,22.30
2018-01-10T22:26:45.014Z,31.13
2018-01-10T22:29:12.915Z,42.07
2018-01-10T22:31:40.873Z,43.47
2018-01-10T22:34:08.843Z,42.17
2018-01-10T22:36:36.679Z,48.27
2018-01-10T22:39:04.756Z,37.87
2018-01-10T22:41:32.536Z,34.63
2018-01-10T22:44:00.515Z,38.50
2018-01-10T22:46:28.670Z,42.20
2018-01-10T22:48:56.548Z,44.40
2018-01-10T22:51:24.632Z,47.93
2018-01-10T22:53:52.595Z,33.03
2018-01-10T22:56:20.538Z,31.17
2018-01-10T22:58:48.578Z,30.50
2018-01-10T23:01:16.574Z,24.57
2018-01-10T23:03:44.882Z,30.73
2018-01-10T23:06:13.026Z,33.57
2018-01-10T23:08:40.914Z,25.57
2018-01-10T23:11:09.311Z,26.47
2018-01-10T23:13:37.239Z,25.73
2018-01-10T23:16:05.130Z,25.23
2018-01-10T23:18:33.053Z,21.33
2018-01-10T23:21:01.043Z,22.53
2018-01-10T23:23:28.837Z,24.60
2018-01-10T23:25:56.613Z,16.20
2018-01-10T23:28:25.524Z,20.83
2018-01-10T23:30:53.344Z,19.73
2018-01-10T23:33:21.121Z,18.80
2018-01-10T23:35:50.703Z,18.67
2018-01-10T23:38:18.482Z,20.73
2018-01-10T23:40:46.310Z,25.77
2018-01-10T23:43:14.193Z,19.03
2018-01-10T23:45:42.271Z,18.40
2018-01-10T23:48:10.359Z,19.30
2018-01-10T23:50:38.431Z,24.80
2018-01-10T23:53:06.909Z,21.40
2018-01-10T23:55:35.285Z,23.10
2018-01-10T23:58:03.123Z,21.73
